createdAt,value
2018-05-12T00:00:52.950Z,15.50
2018-05-12T00:03:21.281Z,15.40
2018-05-12T00:05:48.839Z,15.30
2018-05-12T00:08:16.360Z,15.50
2018-05-12T00:10:43.900Z,15.50
2018-05-12T00:13:12.216Z,15.50
2018-05-12T00:15:39.877Z,15.40
2018-05-12T00:18:07.425Z,15.50
2018-05-12T00:20:36.222Z,15.40
2018-05-12T00:23:03.869Z,15.30
2018-05-12T00:25:31.395Z,15.20
2018-05-12T00:27:59.735Z,15.30
2018-05-12T00:30:27.390Z,15.30
2018-05-12T00:32:54.942Z,15.30
2018-05-12T00:35:22.462Z,15.40
2018-05-12T00:37:50.817Z,15.40
2018-05-12T00:40:19.972Z,15.20
2018-05-12T00:42:47.497Z,15.20
2018-05-12T00:45:15.789Z,15.10
2018-05-12T00:47:43.326Z,15.00
2018-05-12T00:50:11.649Z,14.90
2018-05-12T00:52:39.319Z,14.90
2018-05-12T00:55:06.833Z,14.70
2018-05-12T00:57:34.361Z,14.80
2018-05-12T01:00:02.697Z,15.00
2018-05-12T01:02:31.698Z,14.90
2018-05-12T01:05:00.068Z,14.90
2018-05-12T01:07:27.623Z,14.80
2018-05-12T01:09:57.477Z,14.70
2018-05-12T01:12:25.148Z,14.70
2018-05-12T01:14:53.617Z,14.70
2018-05-12T01:17:21.154Z,14.60
2018-05-12T01:19:48.810Z,14.70
2018-05-12T01:22:16.342Z,14.80
2018-05-12T01:24:43.908Z,14.80
2018-05-12T01:27:11.441Z,14.80
2018-05-12T01:29:39.736Z,14.80
2018-05-12T01:32:09.106Z,14.70
2018-05-12T01:34:37.736Z,14.60
2018-05-12T01:37:05.281Z,14.60
2018-05-12T01:39:34.628Z,14.80
2018-05-12T01:42:02.627Z,14.70
2018-05-12T01:44:30.199Z,14.70
2018-05-12T01:46:57.736Z,14.50
2018-05-12T01:49:26.659Z,14.40
2018-05-12T01:51:54.340Z,14.30
2018-05-12T01:54:21.886Z,14.20
2018-05-12T01:56:49.455Z,14.20
2018-05-12T01:59:16.997Z,14.20
2018-05-12T02:01:44.531Z,14.40
2018-05-12T02:04:12.851Z,14.50
2018-05-12T02:06:40.368Z,14.40
2018-05-12T02:09:08.693Z,14.50
2018-05-12T02:11:36.243Z,14.50
2018-05-12T02:14:03.815Z,14.50
2018-05-12T02:16:31.371Z,14.50
2018-05-12T02:18:58.890Z,14.50
2018-05-12T02:21:26.459Z,14.60
2018-05-12T02:23:53.984Z,14.50
2018-05-12T02:26:22.268Z,14.30
2018-05-12T02:28:49.819Z,14.30
2018-05-12T02:31:18.521Z,14.20
2018-05-12T02:33:46.066Z,14.10
2018-05-12T02:36:14.360Z,14.00
2018-05-12T02:38:41.892Z,13.90
2018-05-12T02:41:10.204Z,13.60
2018-05-12T02:43:37.723Z,13.50
2018-05-12T02:46:06.052Z,13.30
2018-05-12T02:48:33.620Z,13.30
2018-05-12T02:51:01.162Z,13.10
2018-05-12T02:53:28.726Z,13.10
2018-05-12T02:55:56.301Z,13.00
2018-05-12T02:58:23.826Z,12.90
2018-05-12T03:00:51.373Z,12.90
2018-05-12T03:03:18.979Z,12.80
2018-05-12T03:05:46.629Z,12.70
2018-05-12T03:08:14.191Z,12.50
2018-05-12T03:10:41.747Z,12.30
2018-05-12T03:13:09.286Z,12.20
2018-05-12T03:15:36.842Z,12.10
2018-05-12T03:18:04.426Z,12.10
2018-05-12T03:20:32.022Z,11.90
2018-05-12T03:22:59.805Z,12.00
2018-05-12T03:25:27.337Z,11.90
2018-05-12T03:27:54.942Z,12.00
2018-05-12T03:30:22.524Z,12.00
2018-05-12T03:32:50.077Z,12.00
2018-05-12T03:35:19.234Z,12.00
2018-05-12T03:37:46.907Z,12.10
2018-05-12T03:40:14.487Z,12.20
2018-05-12T03:42:42.017Z,12.10
2018-05-12T03:45:10.343Z,11.80
2018-05-12T03:47:37.870Z,11.70
2018-05-12T03:50:05.385Z,11.70
2018-05-12T03:52:32.926Z,11.60
2018-05-12T03:55:00.570Z,11.50
2018-05-12T03:57:28.134Z,11.50
2018-05-12T03:59:55.741Z,11.40
2018-05-12T04:02:23.224Z,11.50
2018-05-12T04:05:02.712Z,11.40
2018-05-12T04:07:42.136Z,11.50
2018-05-12T04:10:21.709Z,11.60
2018-05-12T04:12:50.113Z,11.60
2018-05-12T04:15:17.702Z,11.80
2018-05-12T04:17:45.254Z,11.90
2018-05-12T04:20:12.780Z,12.00
2018-05-12T04:22:40.354Z,12.10
2018-05-12T04:25:07.883Z,12.20
2018-05-12T04:27:36.219Z,12.30
2018-05-12T04:30:04.049Z,12.20
2018-05-12T04:32:33.468Z,12.40
2018-05-12T04:35:01.441Z,12.70
2018-05-12T04:37:28.970Z,12.90
2018-05-12T04:39:56.527Z,13.00
2018-05-12T04:42:24.047Z,13.20
2018-05-12T04:44:51.565Z,13.30
2018-05-12T04:47:19.113Z,13.40
2018-05-12T04:49:46.687Z,13.40
2018-05-12T04:52:14.247Z,13.60
2018-05-12T04:54:41.797Z,13.70
2018-05-12T04:57:10.580Z,13.80
2018-05-12T04:59:39.264Z,13.80
2018-05-12T05:02:06.872Z,13.90
2018-05-12T05:04:34.499Z,13.90
2018-05-12T05:07:02.055Z,13.90
2018-05-12T05:09:29.616Z,13.90
2018-05-12T05:11:57.173Z,14.00
2018-05-12T05:14:24.831Z,14.10
2018-05-12T05:16:52.373Z,14.30
2018-05-12T05:19:21.539Z,14.40
2018-05-12T05:21:49.840Z,14.60
2018-05-12T05:24:21.522Z,14.60
2018-05-12T05:26:49.195Z,14.70
2018-05-12T05:29:16.736Z,14.80
2018-05-12T05:31:44.296Z,14.90
2018-05-12T05:34:11.853Z,15.00
2018-05-12T05:36:39.374Z,15.20
2018-05-12T05:39:07.793Z,15.40
2018-05-12T05:41:35.354Z,15.40
2018-05-12T05:44:02.902Z,15.50
2018-05-12T05:46:30.457Z,15.70
2018-05-12T05:48:57.977Z,15.80
2018-05-12T05:51:26.295Z,15.90
2018-05-12T05:53:53.856Z,15.80
2018-05-12T05:56:21.370Z,16.00
2018-05-12T05:58:49.880Z,16.30
2018-05-12T06:01:17.429Z,16.20
2018-05-12T06:03:45.004Z,16.30
2018-05-12T06:06:12.585Z,16.40
2018-05-12T06:08:40.115Z,16.60
2018-05-12T06:11:07.668Z,16.90
2018-05-12T06:13:35.249Z,17.00
2018-05-12T06:16:02.802Z,17.10
2018-05-12T06:18:30.355Z,17.10
2018-05-12T06:20:57.926Z,17.20
2018-05-12T06:23:25.467Z,17.10
2018-05-12T06:25:53.009Z,17.20
2018-05-12T06:28:20.589Z,17.20
2018-05-12T06:30:48.125Z,17.30
2018-05-12T06:33:15.658Z,17.40
2018-05-12T06:35:43.194Z,17.40
2018-05-12T06:38:10.736Z,17.50
2018-05-12T06:40:38.309Z,17.50
2018-05-12T06:43:05.856Z,17.80
2018-05-12T06:45:33.400Z,18.00
2018-05-12T06:48:01.902Z,18.10
2018-05-12T06:50:29.441Z,18.40
2018-05-12T06:52:57.001Z,18.30
2018-05-12T06:55:24.566Z,18.20
2018-05-12T06:57:52.101Z,18.40
2018-05-12T07:02:53.783Z,18.70
2018-05-12T07:05:21.455Z,18.70
2018-05-12T07:07:49.009Z,18.70
2018-05-12T07:10:17.740Z,18.90
2018-05-12T07:12:46.170Z,18.90
2018-05-12T07:15:13.756Z,18.90
2018-05-12T07:17:41.930Z,18.90
2018-05-12T07:20:09.547Z,19.00
2018-05-12T07:22:37.386Z,18.90
2018-05-12T07:25:05.699Z,19.20
2018-05-12T07:27:33.273Z,19.20
2018-05-12T07:30:02.274Z,19.10
2018-05-12T07:32:29.921Z,19.30
2018-05-12T07:34:57.495Z,19.40
2018-05-12T07:37:25.070Z,19.40
2018-05-12T07:39:52.635Z,19.40
2018-05-12T07:42:20.212Z,19.50
2018-05-12T07:44:48.517Z,19.70
2018-05-12T07:47:16.143Z,19.60
2018-05-12T07:49:43.673Z,19.80
2018-05-12T07:52:11.235Z,19.60
2018-05-12T07:54:38.768Z,19.70
2018-05-12T07:57:06.309Z,20.00
2018-05-12T07:59:33.860Z,20.30
2018-05-12T08:02:01.381Z,20.30
2018-05-12T08:04:30.439Z,20.60
2018-05-12T08:06:57.967Z,20.60
2018-05-12T08:09:26.286Z,20.90
2018-05-12T08:11:53.805Z,20.80
2018-05-12T08:14:21.407Z,21.00
2018-05-12T08:16:48.964Z,20.80
2018-05-12T08:19:16.592Z,20.80
2018-05-12T08:21:44.128Z,20.70
2018-05-12T08:24:12.429Z,21.10
2018-05-12T08:26:40.013Z,21.10
2018-05-12T08:29:08.273Z,21.10
2018-05-12T08:31:35.840Z,21.20
2018-05-12T08:34:03.402Z,21.30
2018-05-12T08:36:30.949Z,21.70
2018-05-12T08:38:58.518Z,21.80
2018-05-12T08:41:26.062Z,21.90
2018-05-12T08:43:53.686Z,22.10
2018-05-12T08:46:22.006Z,22.20
2018-05-12T08:48:49.527Z,22.10
2018-05-12T08:51:17.860Z,22.50
2018-05-12T08:53:45.381Z,22.40
2018-05-12T08:56:12.968Z,22.70
2018-05-12T08:58:40.506Z,22.90
2018-05-12T09:01:08.037Z,22.80
2018-05-12T09:03:36.463Z,22.90
2018-05-12T09:06:03.993Z,22.90
2018-05-12T09:08:31.538Z,23.00
2018-05-12T09:10:59.944Z,23.30
2018-05-12T09:13:27.477Z,23.20
2018-05-12T09:15:55.783Z,23.30
2018-05-12T09:18:23.345Z,23.20
2018-05-12T09:20:50.906Z,23.30
2018-05-12T09:23:18.483Z,23.50
2018-05-12T09:25:46.118Z,23.70
2018-05-12T09:28:13.678Z,23.90
2018-05-12T09:30:41.225Z,23.70
2018-05-12T09:33:08.827Z,24.10
2018-05-12T09:35:36.401Z,24.40
2018-05-12T09:38:03.920Z,24.00
2018-05-12T09:40:31.538Z,23.80
2018-05-12T09:42:59.960Z,24.30
2018-05-12T09:45:27.580Z,24.20
2018-05-12T09:47:55.901Z,24.80
2018-05-12T09:50:23.447Z,24.70
2018-05-12T09:52:52.653Z,24.60
2018-05-12T09:55:21.937Z,24.80
2018-05-12T09:57:50.477Z,25.10
2018-05-12T10:00:18.201Z,24.90
2018-05-12T10:02:45.850Z,25.10
2018-05-12T10:05:13.400Z,25.40
2018-05-12T10:07:40.972Z,25.60
2018-05-12T10:10:08.539Z,25.60
2018-05-12T10:12:36.073Z,25.40
2018-05-12T10:15:03.732Z,25.30
2018-05-12T10:17:31.516Z,25.30
2018-05-12T10:19:59.090Z,25.10
2018-05-12T10:22:26.625Z,25.10
2018-05-12T10:24:54.156Z,25.10
2018-05-12T10:27:22.455Z,25.60
2018-05-12T10:29:50.050Z,25.60
2018-05-12T10:32:17.649Z,25.90
2018-05-12T10:34:45.244Z,26.40
2018-05-12T10:37:12.764Z,26.20
2018-05-12T10:39:41.235Z,26.20
2018-05-12T10:42:09.523Z,25.60
2018-05-12T10:44:37.925Z,25.20
2018-05-12T10:47:05.514Z,25.10
2018-05-12T10:49:33.040Z,25.90
2018-05-12T10:52:00.592Z,26.10
2018-05-12T10:54:28.124Z,25.90
2018-05-12T10:56:56.762Z,25.80
2018-05-12T10:59:24.302Z,25.70
2018-05-12T11:01:51.839Z,26.40
2018-05-12T11:04:20.168Z,27.20
2018-05-12T11:06:47.677Z,27.20
2018-05-12T11:09:16.147Z,28.00
2018-05-12T11:11:44.481Z,28.10
2018-05-12T11:14:12.032Z,28.10
2018-05-12T11:16:39.701Z,28.10
2018-05-12T11:19:07.244Z,28.00
2018-05-12T11:21:34.944Z,27.80
2018-05-12T11:24:02.565Z,27.60
2018-05-12T11:26:30.093Z,27.30
2018-05-12T11:28:58.494Z,27.40
2018-05-12T11:31:26.016Z,27.30
2018-05-12T11:33:54.320Z,27.40
2018-05-12T11:36:21.904Z,27.30
2018-05-12T11:38:49.496Z,27.50
2018-05-12T11:41:17.027Z,27.60
2018-05-12T11:43:44.550Z,27.80
2018-05-12T11:46:12.801Z,27.60
2018-05-12T11:48:41.117Z,28.00
2018-05-12T11:51:08.671Z,27.90
2018-05-12T11:53:36.200Z,27.80
2018-05-12T11:56:04.485Z,27.80
2018-05-12T11:58:32.788Z,27.70
2018-05-12T12:01:00.419Z,27.70
2018-05-12T12:03:29.059Z,27.60
2018-05-12T12:05:56.585Z,27.50
2018-05-12T12:08:24.141Z,27.50
2018-05-12T12:10:51.690Z,27.50
2018-05-12T12:13:19.227Z,27.70
2018-05-12T12:15:47.541Z,28.30
2018-05-12T12:18:15.087Z,28.20
2018-05-12T12:20:42.644Z,28.30
2018-05-12T12:23:10.170Z,28.80
2018-05-12T12:25:37.741Z,29.30
2018-05-12T12:28:06.048Z,30.10
2018-05-12T12:30:34.138Z,30.00
2018-05-12T12:33:01.662Z,31.00
2018-05-12T12:35:29.515Z,31.20
2018-05-12T12:37:57.061Z,31.50
2018-05-12T12:40:25.384Z,31.40
2018-05-12T12:42:52.939Z,31.40
2018-05-12T12:45:20.497Z,31.20
2018-05-12T12:47:48.051Z,32.40
2018-05-12T12:50:15.609Z,33.00
2018-05-12T12:52:43.171Z,32.10
2018-05-12T12:55:10.746Z,32.20
2018-05-12T12:57:38.263Z,32.40
2018-05-12T13:00:06.556Z,32.00
2018-05-12T13:02:34.112Z,32.00
2018-05-12T13:05:01.638Z,32.00
2018-05-12T13:07:29.956Z,30.30
2018-05-12T13:09:57.501Z,30.20
2018-05-12T13:12:25.077Z,30.80
2018-05-12T13:14:52.598Z,30.50
2018-05-12T13:17:20.911Z,32.60
2018-05-12T13:19:48.492Z,32.50
2018-05-12T13:22:16.035Z,33.50
2018-05-12T13:24:43.626Z,33.10
2018-05-12T13:27:11.922Z,32.30
2018-05-12T13:29:39.447Z,32.30
2018-05-12T13:32:07.016Z,32.80
2018-05-12T13:34:34.544Z,33.10
2018-05-12T13:37:02.203Z,33.30
2018-05-12T13:39:29.785Z,33.20
2018-05-12T13:41:57.305Z,32.50
2018-05-12T13:44:24.821Z,33.10
2018-05-12T13:46:52.395Z,32.70
2018-05-12T13:49:20.687Z,34.40
2018-05-12T13:51:48.372Z,34.40
2018-05-12T13:54:16.044Z,34.60
2018-05-12T13:56:43.581Z,34.20
2018-05-12T13:59:11.156Z,33.30
2018-05-12T14:01:38.721Z,32.80
2018-05-12T14:04:06.256Z,33.20
2018-05-12T14:06:33.791Z,33.70
2018-05-12T14:09:02.113Z,34.60
2018-05-12T14:11:29.648Z,34.60
2018-05-12T14:13:57.166Z,35.10
2018-05-12T14:16:24.786Z,35.00
2018-05-12T14:18:52.448Z,34.40
2018-05-12T14:21:19.908Z,35.00
2018-05-12T14:23:47.566Z,34.50
2018-05-12T14:26:15.145Z,33.70
2018-05-12T14:28:42.676Z,33.70
2018-05-12T14:31:10.241Z,33.10
2018-05-12T14:33:38.427Z,32.80
2018-05-12T14:36:05.965Z,32.90
2018-05-12T14:38:33.525Z,33.10
2018-05-12T14:41:01.389Z,33.70
2018-05-12T14:43:28.948Z,33.40
2018-05-12T14:45:56.500Z,33.90
2018-05-12T14:48:24.025Z,34.30
2018-05-12T14:50:52.343Z,33.90
2018-05-12T14:53:20.064Z,33.80
2018-05-12T14:55:47.663Z,34.00
2018-05-12T14:58:15.174Z,33.80
2018-05-12T15:00:42.787Z,33.50
2018-05-12T15:03:10.302Z,33.30
2018-05-12T15:05:38.597Z,33.60
2018-05-12T15:08:06.164Z,33.50
2018-05-12T15:10:33.984Z,33.00
2018-05-12T15:13:01.530Z,32.10
2018-05-12T15:15:29.091Z,31.40
2018-05-12T15:17:56.614Z,30.30
2018-05-12T15:20:24.159Z,29.90
2018-05-12T15:22:51.914Z,29.40
2018-05-12T15:25:19.435Z,29.50
2018-05-12T15:27:47.072Z,30.10
2018-05-12T15:30:14.627Z,30.30
2018-05-12T15:32:42.177Z,30.10
2018-05-12T15:35:09.690Z,30.60
2018-05-12T15:37:38.114Z,29.50
2018-05-12T15:40:05.651Z,29.50
2018-05-12T15:42:33.196Z,29.40
2018-05-12T15:45:02.390Z,30.50
2018-05-12T15:47:30.704Z,30.70
2018-05-12T15:49:58.304Z,30.70
2018-05-12T15:52:25.824Z,31.40
2018-05-12T15:54:53.383Z,31.20
2018-05-12T15:57:20.989Z,31.10
2018-05-12T15:59:48.504Z,30.80
2018-05-12T16:02:16.072Z,30.70
2018-05-12T16:04:43.613Z,30.40
2018-05-12T16:07:11.164Z,30.10
2018-05-12T16:09:38.732Z,29.60
2018-05-12T16:12:06.248Z,28.80
2018-05-12T16:14:34.596Z,27.60
2018-05-12T16:17:02.124Z,27.50
2018-05-12T16:19:29.670Z,27.10
2018-05-12T16:21:57.251Z,26.50
2018-05-12T16:24:24.767Z,26.20
2018-05-12T16:26:53.060Z,26.40
2018-05-12T16:29:20.634Z,26.30
2018-05-12T16:31:48.203Z,26.60
2018-05-12T16:34:15.757Z,26.90
2018-05-12T16:36:43.283Z,27.10
2018-05-12T16:39:11.639Z,27.30
2018-05-12T16:41:39.259Z,27.20
2018-05-12T16:44:06.792Z,27.50
2018-05-12T16:46:34.362Z,27.60
2018-05-12T16:49:02.246Z,27.80
2018-05-12T16:51:29.772Z,27.60
2018-05-12T16:53:57.357Z,27.50
2018-05-12T16:56:24.883Z,27.40
2018-05-12T16:58:52.401Z,27.60
2018-05-12T17:01:20.028Z,27.50
2018-05-12T17:03:47.550Z,27.40
2018-05-12T17:06:15.829Z,27.30
2018-05-12T17:08:44.157Z,27.30
2018-05-12T17:11:11.705Z,27.20
2018-05-12T17:13:39.226Z,27.20
2018-05-12T17:16:07.546Z,27.30
2018-05-12T17:18:35.099Z,27.20
2018-05-12T17:21:02.638Z,27.30
2018-05-12T17:23:30.190Z,26.70
2018-05-12T17:25:57.701Z,26.70
2018-05-12T17:28:25.422Z,26.50
2018-05-12T17:30:53.094Z,26.20
2018-05-12T17:33:20.623Z,26.00
2018-05-12T17:35:48.134Z,26.00
2018-05-12T17:38:15.760Z,25.90
2018-05-12T17:40:44.232Z,25.60
2018-05-12T17:43:11.938Z,25.60
2018-05-12T17:45:39.502Z,25.50
2018-05-12T17:48:07.124Z,25.30
2018-05-12T17:50:34.642Z,25.10
2018-05-12T17:53:02.962Z,24.80
2018-05-12T17:55:30.481Z,24.70
2018-05-12T17:57:58.770Z,24.60
2018-05-12T18:00:26.346Z,24.60
2018-05-12T18:02:53.905Z,24.40
2018-05-12T18:05:21.429Z,24.30
2018-05-12T18:07:49.745Z,24.20
2018-05-12T18:10:17.308Z,24.10
2018-05-12T18:12:44.870Z,24.00
2018-05-12T18:15:12.429Z,23.80
2018-05-12T18:17:39.952Z,23.60
2018-05-12T18:20:07.514Z,23.50
2018-05-12T18:22:35.085Z,23.30
2018-05-12T18:25:03.043Z,23.20
2018-05-12T18:27:31.039Z,23.10
2018-05-12T18:29:58.695Z,22.80
2018-05-12T18:32:26.229Z,22.80
2018-05-12T18:34:53.821Z,22.70
2018-05-12T18:37:21.475Z,22.70
2018-05-12T18:39:49.125Z,22.60
2018-05-12T18:42:16.660Z,22.50
2018-05-12T18:44:44.988Z,22.10
2018-05-12T18:47:12.516Z,21.90
2018-05-12T18:49:40.046Z,21.90
2018-05-12T18:52:08.371Z,21.80
2018-05-12T18:54:36.119Z,21.80
2018-05-12T18:57:03.681Z,21.80
2018-05-12T18:59:31.267Z,21.60
2018-05-12T19:01:58.809Z,21.50
2018-05-12T19:04:26.339Z,21.40
2018-05-12T19:06:53.891Z,21.30
2018-05-12T19:09:21.418Z,21.30
2018-05-12T19:11:48.935Z,21.10
2018-05-12T19:14:16.504Z,21.00
2018-05-12T19:16:44.031Z,20.90
2018-05-12T19:19:11.554Z,20.80
2018-05-12T19:21:39.117Z,20.80
2018-05-12T19:24:06.651Z,20.80
2018-05-12T19:26:34.198Z,20.60
2018-05-12T19:29:01.856Z,20.50
2018-05-12T19:31:29.423Z,20.40
2018-05-12T19:33:57.065Z,20.40
2018-05-12T19:36:24.621Z,20.30
2018-05-12T19:38:52.154Z,20.30
2018-05-12T19:41:20.454Z,20.10
2018-05-12T19:43:48.125Z,20.00
2018-05-12T19:46:15.572Z,20.10
2018-05-12T19:48:43.090Z,20.00
2018-05-12T19:51:11.525Z,19.90
2018-05-12T19:53:39.083Z,19.90
2018-05-12T19:56:06.644Z,19.90
2018-05-12T19:58:34.293Z,19.70
2018-05-12T20:01:01.816Z,19.70
2018-05-12T20:03:30.117Z,19.60
2018-05-12T20:05:57.703Z,19.60
2018-05-12T20:08:25.245Z,19.50
2018-05-12T20:10:52.784Z,19.50
2018-05-12T20:13:20.343Z,19.40
2018-05-12T20:15:47.916Z,19.40
2018-05-12T20:18:15.444Z,19.30
2018-05-12T20:20:44.162Z,19.00
2018-05-12T20:23:11.718Z,19.00
2018-05-12T20:25:39.287Z,19.00
2018-05-12T20:28:06.845Z,19.00
2018-05-12T20:30:34.378Z,19.00
2018-05-12T20:33:01.974Z,19.00
2018-05-12T20:35:29.537Z,19.00
2018-05-12T20:37:57.054Z,19.00
2018-05-12T20:40:24.586Z,19.00
2018-05-12T20:42:52.924Z,18.90
2018-05-12T20:45:20.467Z,18.90
2018-05-12T20:47:48.148Z,18.90
2018-05-12T20:50:15.728Z,18.90
2018-05-12T20:52:43.267Z,18.90
2018-05-12T20:55:10.815Z,18.90
2018-05-12T20:57:38.458Z,18.90
2018-05-12T21:00:06.087Z,18.80
2018-05-12T21:02:34.383Z,18.70
2018-05-12T21:05:01.986Z,18.70
2018-05-12T21:07:29.533Z,18.60
2018-05-12T21:09:57.088Z,18.60
2018-05-12T21:12:24.633Z,18.60
2018-05-12T21:14:52.162Z,18.50
2018-05-12T21:17:20.450Z,18.50
2018-05-12T21:19:48.001Z,18.40
2018-05-12T21:22:17.374Z,18.40
2018-05-12T21:24:44.938Z,18.40
2018-05-12T21:27:12.492Z,18.40
2018-05-12T21:29:40.021Z,18.30
2018-05-12T21:32:07.547Z,18.20
2018-05-12T21:34:35.102Z,18.20
2018-05-12T21:37:02.773Z,18.10
2018-05-12T21:39:30.356Z,18.10
2018-05-12T21:41:57.928Z,18.00
2018-05-12T21:44:25.473Z,18.00
2018-05-12T21:46:53.004Z,18.00
2018-05-12T21:49:20.573Z,18.00
2018-05-12T21:51:48.149Z,17.90
2018-05-12T21:54:15.684Z,17.80
2018-05-12T21:56:43.265Z,17.80
2018-05-12T21:59:10.808Z,17.90
2018-05-12T22:01:38.342Z,17.90
2018-05-12T22:04:05.947Z,17.90
2018-05-12T22:06:33.470Z,17.80
2018-05-12T22:09:00.989Z,17.80
2018-05-12T22:11:28.559Z,17.80
2018-05-12T22:13:56.908Z,17.80
2018-05-12T22:16:24.443Z,17.70
2018-05-12T22:18:52.001Z,17.60
2018-05-12T22:21:19.529Z,17.60
2018-05-12T22:23:47.852Z,17.70
2018-05-12T22:26:15.421Z,17.60
2018-05-12T22:28:42.939Z,17.70
2018-05-12T22:31:10.520Z,17.70
2018-05-12T22:33:38.081Z,17.60
2018-05-12T22:36:05.620Z,17.50
2018-05-12T22:38:33.151Z,17.50
2018-05-12T22:41:01.579Z,17.50
2018-05-12T22:43:29.115Z,17.40
2018-05-12T22:45:56.645Z,17.50
2018-05-12T22:48:25.062Z,17.50
2018-05-12T22:50:52.593Z,17.40
2018-05-12T22:53:20.134Z,17.40
2018-05-12T22:55:48.455Z,17.20
2018-05-12T22:58:15.987Z,17.10
2018-05-12T23:00:43.577Z,17.20
2018-05-12T23:03:11.943Z,17.10
2018-05-12T23:05:39.475Z,17.00
2018-05-12T23:08:07.800Z,17.20
2018-05-12T23:10:35.460Z,17.10
2018-05-12T23:13:02.990Z,17.00
2018-05-12T23:15:30.525Z,17.00
2018-05-12T23:17:58.842Z,17.00
2018-05-12T23:20:26.411Z,16.90
2018-05-12T23:22:54.469Z,17.00
2018-05-12T23:25:22.031Z,17.00
2018-05-12T23:27:49.598Z,16.90
2018-05-12T23:30:17.149Z,16.60
2018-05-12T23:32:44.712Z,16.70
2018-05-12T23:35:12.261Z,16.70
2018-05-12T23:37:39.813Z,16.70
2018-05-12T23:40:07.366Z,16.70
2018-05-12T23:42:34.896Z,16.80
2018-05-12T23:45:03.182Z,16.60
2018-05-12T23:47:31.509Z,16.40
2018-05-12T23:49:59.605Z,16.40
2018-05-12T23:52:27.221Z,16.20
2018-05-12T23:54:54.790Z,16.00
2018-05-12T23:57:22.313Z,15.90
2018-05-12T23:59:49.839Z,16.00
